createdAt,value
2023-04-02T00:02:59.242Z,70141.72
2023-04-02T00:07:21.341Z,70141.72
2023-04-02T00:11:34.271Z,70141.72
2023-04-02T00:15:37.441Z,70141.72
2023-04-02T00:19:46.629Z,70141.72
2023-04-02T00:23:48.129Z,70141.72
2023-04-02T00:27:50.160Z,70141.72
2023-04-02T00:31:53.747Z,70141.72
2023-04-02T00:35:56.260Z,70141.72
2023-04-02T00:40:06.006Z,70141.72
2023-04-02T00:44:12.553Z,70141.72
2023-04-02T00:48:32.032Z,70141.72
2023-04-02T00:52:35.345Z,70141.72
2023-04-02T00:56:44.631Z,70141.72
2023-04-02T01:00:50.574Z,70141.72
2023-04-02T01:04:54.287Z,70141.72
2023-04-02T01:09:15.220Z,70141.72
2023-04-02T01:13:31.419Z,70141.72
2023-04-02T01:17:54.522Z,70141.72
2023-04-02T01:22:11.939Z,70141.72
2023-04-02T01:26:22.630Z,70141.72
2023-04-02T01:30:24.874Z,70141.72
2023-04-02T01:34:28.727Z,70141.72
2023-04-02T01:38:39.652Z,70141.72
2023-04-02T01:47:19.436Z,70141.72
2023-04-02T01:51:30.707Z,70141.72
2023-04-02T01:55:39.981Z,70141.72
2023-04-02T01:59:41.699Z,70141.72
2023-04-02T02:03:44.901Z,70141.72
2023-04-02T02:07:46.666Z,70141.72
2023-04-02T02:11:48.611Z,70141.72
2023-04-02T02:15:50.398Z,70141.72
2023-04-02T02:19:56.829Z,70141.72
2023-04-02T02:23:59.921Z,70141.72
2023-04-02T02:28:17.129Z,70141.72
2023-04-02T02:32:23.405Z,70141.72
2023-04-02T02:36:36.140Z,70141.72
2023-04-02T02:40:44.151Z,70141.72
2023-04-02T02:44:49.372Z,70141.72
2023-04-02T02:48:53.608Z,70141.72
2023-04-02T02:52:58.371Z,70141.72
2023-04-02T02:57:03.768Z,70141.72
2023-04-02T03:01:05.336Z,70141.72
2023-04-02T03:05:08.158Z,70141.72
2023-04-02T03:09:12.413Z,70141.72
2023-04-02T03:13:29.133Z,70141.72
2023-04-02T03:17:36.221Z,70141.72
2023-04-02T03:21:53.195Z,70141.72
2023-04-02T03:26:31.664Z,70141.72
2023-04-02T03:30:51.567Z,70141.72
2023-04-02T03:35:06.427Z,70141.72
2023-04-02T03:39:46.490Z,70141.72
2023-04-02T03:43:53.221Z,70141.72
2023-04-02T03:48:03.638Z,70141.72
2023-04-02T03:52:14.877Z,70141.72
2023-04-02T03:56:28.417Z,70141.72
2023-04-02T04:00:38.224Z,70141.72
2023-04-02T04:04:42.856Z,70141.72
2023-04-02T04:08:50.353Z,70141.72
2023-04-02T04:12:55.806Z,70141.72
2023-04-02T04:17:15.487Z,70141.72
2023-04-02T04:21:39.967Z,70141.72
2023-04-02T04:25:41.525Z,70141.72
2023-04-02T04:29:45.746Z,70141.72
2023-04-02T04:33:54.966Z,70141.72
2023-04-02T04:38:05.774Z,70141.72
2023-04-02T04:42:13.177Z,70141.72
2023-04-02T04:46:23.446Z,70141.72
2023-04-02T04:50:24.878Z,70141.72
2023-04-02T04:54:28.524Z,70141.72
2023-04-02T04:58:32.766Z,70141.72
2023-04-02T05:02:45.372Z,70141.72
2023-04-02T05:07:06.072Z,70141.72
2023-04-02T05:11:28.407Z,70141.72
2023-04-02T05:15:35.533Z,70141.72
2023-04-02T05:19:44.510Z,70141.72
2023-04-02T05:23:52.322Z,70141.72
2023-04-02T05:28:17.772Z,70141.72
2023-04-02T05:32:25.825Z,70141.72
2023-04-02T05:36:30.122Z,70141.72
2023-04-02T05:40:37.573Z,70141.72
2023-04-02T05:44:48.990Z,70141.72
2023-04-02T05:48:56.701Z,70141.72
2023-04-02T05:53:14.932Z,70141.72
2023-04-02T05:57:27.065Z,70141.72
2023-04-02T06:01:45.329Z,70141.72
2023-04-02T06:05:46.894Z,70141.72
2023-04-02T06:09:51.864Z,70141.72
2023-04-02T06:13:53.338Z,70141.72
2023-04-02T06:18:07.370Z,70141.72
2023-04-02T06:22:36.775Z,70141.72
2023-04-02T06:26:43.472Z,70141.72
2023-04-02T06:30:46.098Z,70141.72
2023-04-02T06:34:47.774Z,70141.72
2023-04-02T06:38:50.810Z,70141.72
2023-04-02T06:42:59.551Z,70141.72
2023-04-02T06:47:31.898Z,70141.72
2023-04-02T06:51:36.781Z,70141.72
2023-04-02T06:56:05.246Z,70141.72
2023-04-02T07:00:20.417Z,70141.72
2023-04-02T07:04:22.395Z,70141.72
2023-04-02T07:08:24.308Z,70141.72
2023-04-02T07:12:26.513Z,70141.72
2023-04-02T07:16:30.059Z,70141.72
2023-04-02T07:20:34.059Z,70141.72
2023-04-02T07:24:35.496Z,70141.72
2023-04-02T07:28:37.007Z,70141.72
2023-04-02T07:32:38.546Z,70141.72
2023-04-02T07:36:40.424Z,70141.72
2023-04-02T07:40:42.047Z,70141.72
2023-04-02T07:44:44.555Z,70141.72
2023-04-02T07:48:46.961Z,70141.72
2023-04-02T07:52:48.425Z,70141.72
2023-04-02T07:56:49.969Z,70141.72
2023-04-02T08:00:51.577Z,70141.72
2023-04-02T08:04:52.988Z,70141.72
2023-04-02T08:08:54.537Z,70141.72
2023-04-02T08:12:56.043Z,70141.72
2023-04-02T08:16:57.615Z,70141.72
2023-04-02T08:20:59.811Z,70141.72
2023-04-02T08:25:01.376Z,70141.72
2023-04-02T08:29:03.848Z,70141.72
2023-04-02T08:33:05.502Z,70141.72
2023-04-02T08:37:07.746Z,70141.72
2023-04-02T08:41:22.483Z,70141.72
2023-04-02T08:45:52.267Z,70141.72
2023-04-02T08:49:58.897Z,70141.72
2023-04-02T08:54:08.776Z,70141.72
2023-04-02T08:58:16.936Z,70141.72
2023-04-02T09:02:51.958Z,70141.72
2023-04-02T09:06:56.199Z,70141.72
2023-04-02T09:10:57.695Z,70141.72
2023-04-02T09:15:11.974Z,70141.72
2023-04-02T09:19:21.739Z,70141.72
2023-04-02T09:23:25.960Z,70141.72
2023-04-02T09:27:33.035Z,70141.72
2023-04-02T09:31:39.095Z,70141.72
2023-04-02T09:35:49.757Z,70141.72
2023-04-02T09:39:51.672Z,70141.72
2023-04-02T09:44:31.446Z,70141.72
2023-04-02T09:48:46.450Z,101596.50
2023-04-02T09:52:48.675Z,101597.13
2023-04-02T09:57:02.626Z,101608.50
2023-04-02T10:01:04.960Z,101618.09
2023-04-02T10:05:26.592Z,101617.59
2023-04-02T10:09:41.329Z,101628.25
2023-04-02T10:13:59.918Z,101632.06
2023-04-02T10:18:21.487Z,101631.03
2023-04-02T10:22:28.889Z,101634.00
2023-04-02T10:26:52.012Z,101643.59
2023-04-02T10:31:03.300Z,101648.22
2023-04-02T10:35:17.854Z,101642.28
2023-04-02T10:39:25.614Z,101652.91
2023-04-02T10:44:19.922Z,101663.00
2023-04-02T10:48:47.203Z,101663.44
2023-04-02T10:53:11.372Z,101680.81
2023-04-02T10:57:40.830Z,101679.06
2023-04-02T11:01:46.006Z,101680.09
2023-04-02T11:05:50.751Z,101689.03
2023-04-02T11:09:56.248Z,101697.19
2023-04-02T11:14:00.425Z,101706.28
2023-04-02T11:18:02.022Z,101715.00
2023-04-02T11:22:14.535Z,101721.59
2023-04-02T11:26:48.272Z,101736.44
2023-04-02T11:30:49.774Z,101735.25
2023-04-02T11:35:05.121Z,101728.66
2023-04-02T11:39:16.911Z,101737.31
2023-04-02T11:43:34.435Z,101742.03
2023-04-02T11:47:36.101Z,101747.03
2023-04-02T11:51:37.568Z,101746.47
2023-04-02T11:55:41.522Z,101767.75
2023-04-02T12:00:17.554Z,101768.75
2023-04-02T12:04:39.478Z,101769.84
2023-04-02T12:09:14.712Z,101772.53
2023-04-02T12:13:43.220Z,101770.19
2023-04-02T12:17:44.897Z,101772.69
2023-04-02T12:21:49.919Z,101777.75
2023-04-02T12:26:00.359Z,101771.63
2023-04-02T12:30:14.527Z,101779.19
2023-04-02T12:34:18.623Z,101790.84
2023-04-02T12:38:23.308Z,101787.25
2023-04-02T12:42:43.902Z,101794.16
2023-04-02T12:46:46.341Z,101794.88
2023-04-02T12:50:49.358Z,101795.94
2023-04-02T12:54:58.772Z,101797.38
2023-04-02T12:59:01.248Z,101802.94
2023-04-02T13:03:16.817Z,101798.16
2023-04-02T13:07:21.574Z,101799.13
2023-04-02T13:11:33.044Z,101806.97
2023-04-02T13:15:36.654Z,101813.56
2023-04-02T13:19:38.238Z,101805.94
2023-04-02T13:23:39.750Z,101805.31
2023-04-02T13:27:41.626Z,101808.53
2023-04-02T13:31:43.181Z,101810.25
2023-04-02T13:35:44.713Z,101807.53
2023-04-02T13:39:46.200Z,101804.91
2023-04-02T13:43:48.176Z,101813.50
2023-04-02T13:47:49.872Z,101817.78
2023-04-02T13:52:00.730Z,101816.59
2023-04-02T13:56:02.550Z,101819.56
2023-04-02T14:00:05.003Z,101825.69
2023-04-02T14:04:07.362Z,101814.03
2023-04-02T14:08:22.816Z,101819.28
2023-04-02T14:12:24.672Z,101832.91
2023-04-02T14:16:50.654Z,101832.34
2023-04-02T14:21:13.657Z,101835.38
2023-04-02T14:25:31.686Z,101835.72
2023-04-02T14:30:04.727Z,101847.44
2023-04-02T14:34:42.851Z,101853.03
2023-04-02T14:38:55.531Z,101857.41
2023-04-02T14:43:00.344Z,101856.25
2023-04-02T14:47:33.582Z,101857.34
2023-04-02T14:51:34.941Z,101864.06
2023-04-02T14:55:42.395Z,101873.44
2023-04-02T15:00:05.634Z,101865.03
2023-04-02T15:04:14.335Z,101863.28
2023-04-02T15:08:28.624Z,101875.25
2023-04-02T15:12:35.811Z,101879.63
2023-04-02T15:16:37.286Z,101886.88
2023-04-02T15:20:53.460Z,101891.44
2023-04-02T15:25:10.845Z,101898.56
2023-04-02T15:29:30.486Z,101912.31
2023-04-02T15:33:45.506Z,101911.72
2023-04-02T15:38:05.512Z,101917.38
2023-04-02T15:42:18.806Z,101922.25
2023-04-02T15:47:03.683Z,101929.69
2023-04-02T15:51:43.994Z,101938.59
2023-04-02T15:55:54.134Z,101939.63
2023-04-02T16:00:11.328Z,101951.25
2023-04-02T16:04:32.840Z,101957.25
2023-04-02T16:09:02.579Z,101955.00
2023-04-02T16:13:19.221Z,101967.50
2023-04-02T16:17:28.141Z,101980.00
2023-04-02T16:21:34.719Z,101981.00
2023-04-02T16:25:48.453Z,101983.25
2023-04-02T16:30:08.119Z,101991.97
2023-04-02T16:34:28.110Z,101993.25
2023-04-02T16:38:32.460Z,102006.47
2023-04-02T16:42:55.934Z,102009.78
2023-04-02T16:47:12.689Z,102027.72
2023-04-02T16:51:37.207Z,102029.66
2023-04-02T16:56:08.488Z,102042.00
2023-04-02T17:00:44.513Z,102044.97
2023-04-02T17:05:06.967Z,102045.94
2023-04-02T17:09:27.274Z,102049.88
2023-04-02T17:13:44.748Z,102053.34
2023-04-02T17:17:46.224Z,102053.56
2023-04-02T17:21:52.239Z,102057.00
2023-04-02T17:26:00.630Z,102069.66
2023-04-02T17:30:22.048Z,102075.09
2023-04-02T17:34:24.231Z,102079.47
2023-04-02T17:38:57.947Z,102097.09
2023-04-02T17:42:59.326Z,102107.34
2023-04-02T17:47:15.733Z,102112.22
2023-04-02T17:52:01.750Z,102116.06
2023-04-02T17:56:27.734Z,102125.13
2023-04-02T18:00:41.244Z,102135.19
2023-04-02T18:04:57.826Z,102141.50
2023-04-02T18:09:33.423Z,102143.66
2023-04-02T18:14:12.977Z,102150.22
2023-04-02T18:18:39.157Z,102161.00
2023-04-02T18:22:47.023Z,102167.47
2023-04-02T18:26:57.762Z,102164.38
2023-04-02T18:31:13.439Z,102175.16
2023-04-02T18:35:42.035Z,102184.56
2023-04-02T18:40:01.672Z,102188.19
2023-04-02T18:44:22.073Z,102200.28
2023-04-02T18:48:41.456Z,102208.63
2023-04-02T18:52:43.035Z,102216.91
2023-04-02T18:56:44.816Z,102216.91
2023-04-02T19:00:46.971Z,102226.31
2023-04-02T19:05:13.315Z,102234.53
2023-04-02T19:09:18.877Z,102238.94
2023-04-02T19:13:21.383Z,102245.56
2023-04-02T19:17:35.503Z,102253.53
2023-04-02T19:22:01.872Z,102257.66
2023-04-02T19:26:16.068Z,102255.75
2023-04-02T19:30:20.411Z,102269.78
2023-04-02T19:34:43.004Z,102271.97
2023-04-02T19:39:21.666Z,102276.13
2023-04-02T19:43:23.400Z,102279.69
2023-04-02T19:47:25.225Z,102281.06
2023-04-02T19:51:27.133Z,102290.94
2023-04-02T19:55:28.663Z,102285.47
2023-04-02T19:59:30.226Z,102299.97
2023-04-02T20:03:32.353Z,102301.91
2023-04-02T20:07:33.954Z,102301.88
2023-04-02T20:11:37.112Z,102302.97
2023-04-02T20:15:41.735Z,102313.69
2023-04-02T20:19:43.236Z,102317.78
2023-04-02T20:23:44.712Z,102320.22
2023-04-02T20:27:46.229Z,102327.09
2023-04-02T20:31:47.667Z,102337.44
2023-04-02T20:35:50.606Z,102343.78
2023-04-02T20:39:52.661Z,102347.06
2023-04-02T20:43:54.362Z,102353.31
2023-04-02T20:47:56.600Z,102361.25
2023-04-02T20:51:58.106Z,102361.28
2023-04-02T20:56:06.923Z,102367.81
2023-04-02T21:00:10.196Z,102365.59
2023-04-02T21:04:12.980Z,102365.28
2023-04-02T21:08:14.591Z,102365.94
2023-04-02T21:12:16.704Z,102368.53
2023-04-02T21:16:29.757Z,102368.19
2023-04-02T21:20:32.243Z,102381.53
2023-04-02T21:24:33.682Z,102388.03
2023-04-02T21:28:35.169Z,102392.91
2023-04-02T21:32:36.637Z,102401.09
2023-04-02T21:36:45.874Z,102401.00
2023-04-02T21:40:47.285Z,102397.72
2023-04-02T21:44:48.729Z,102400.44
2023-04-02T21:48:51.093Z,102405.56
2023-04-02T21:52:52.734Z,102415.69
2023-04-02T21:56:54.477Z,102413.16
2023-04-02T22:00:56.208Z,102424.97
2023-04-02T22:04:57.749Z,102433.38
2023-04-02T22:09:01.519Z,102436.84
2023-04-02T22:13:02.965Z,102435.19
2023-04-02T22:17:04.532Z,102440.00
2023-04-02T22:21:06.686Z,102447.13
2023-04-02T22:25:08.645Z,102444.44
2023-04-02T22:29:10.626Z,102444.16
2023-04-02T22:33:12.499Z,102448.78
2023-04-02T22:37:13.960Z,102448.47
2023-04-02T22:41:17.180Z,102455.47
2023-04-02T22:45:20.879Z,102452.66
2023-04-02T22:49:22.293Z,102457.81
2023-04-02T22:53:24.024Z,102466.50
2023-04-02T22:57:28.527Z,102468.69
2023-04-02T23:01:32.860Z,102467.59
2023-04-02T23:05:34.412Z,102475.75
2023-04-02T23:09:36.366Z,102479.31
2023-04-02T23:13:39.208Z,102488.91
2023-04-02T23:17:40.684Z,102496.00
2023-04-02T23:21:42.230Z,102499.53
2023-04-02T23:25:43.761Z,102488.34
2023-04-02T23:29:45.504Z,102492.34
2023-04-02T23:33:47.663Z,102494.97
2023-04-02T23:37:49.455Z,102492.88
2023-04-02T23:41:51.453Z,102500.94
2023-04-02T23:45:53.027Z,102501.94
2023-04-02T23:49:54.414Z,102499.72
2023-04-02T23:53:56.209Z,102503.84
2023-04-02T23:57:57.735Z,102498.34
